createdAt,value
2022-10-17T00:02:31.478Z,8.37
2022-10-17T00:05:35.680Z,8.41
2022-10-17T00:08:41.769Z,7.68
2022-10-17T00:11:46.107Z,8.05
2022-10-17T00:14:50.537Z,7.20
2022-10-17T00:17:57.772Z,6.63
2022-10-17T00:21:02.307Z,6.81
2022-10-17T00:24:07.391Z,6.47
2022-10-17T00:27:11.746Z,6.12
2022-10-17T00:30:17.816Z,6.25
2022-10-17T00:33:22.471Z,6.22
2022-10-17T00:36:28.170Z,6.39
2022-10-17T00:39:32.761Z,5.83
2022-10-17T00:42:37.282Z,5.53
2022-10-17T00:45:41.838Z,5.52
2022-10-17T00:48:53.336Z,5.48
2022-10-17T00:52:01.859Z,5.92
2022-10-17T00:55:24.727Z,6.02
2022-10-17T00:58:29.572Z,5.65
2022-10-17T01:01:34.019Z,6.32
2022-10-17T01:04:41.206Z,6.62
2022-10-17T01:07:47.201Z,6.43
2022-10-17T01:11:07.030Z,6.28
2022-10-17T01:14:46.764Z,6.53
2022-10-17T01:18:14.751Z,6.72
2022-10-17T01:21:28.779Z,6.72
2022-10-17T01:24:49.036Z,6.70
2022-10-17T01:28:12.562Z,7.12
2022-10-17T01:31:21.551Z,7.41
2022-10-17T01:34:41.938Z,7.52
2022-10-17T01:38:04.412Z,7.70
2022-10-17T01:41:16.801Z,7.66
2022-10-17T01:44:38.225Z,6.65
2022-10-17T01:47:44.240Z,6.68
2022-10-17T01:51:08.337Z,6.37
2022-10-17T01:54:40.681Z,6.02
2022-10-17T01:57:52.903Z,5.17
2022-10-17T02:00:59.862Z,5.61
2022-10-17T02:04:10.797Z,5.33
2022-10-17T02:07:15.173Z,5.12
2022-10-17T02:10:47.543Z,5.06
2022-10-17T02:13:52.248Z,5.28
2022-10-17T02:17:17.004Z,5.33
2022-10-17T02:20:44.752Z,5.99
2022-10-17T02:24:22.477Z,6.37
2022-10-17T02:27:42.427Z,6.15
2022-10-17T02:31:16.257Z,6.65
2022-10-17T02:34:31.213Z,5.97
2022-10-17T02:37:36.968Z,5.55
2022-10-17T02:40:43.002Z,6.17
2022-10-17T02:43:50.501Z,6.47
2022-10-17T02:47:03.000Z,6.54
2022-10-17T02:50:08.609Z,6.51
2022-10-17T02:53:29.498Z,6.59
2022-10-17T02:56:42.459Z,6.62
2022-10-17T02:59:48.309Z,6.62
2022-10-17T03:02:54.807Z,6.61
2022-10-17T03:05:59.510Z,6.59
2022-10-17T03:09:05.217Z,6.92
2022-10-17T03:12:10.010Z,7.04
2022-10-17T03:15:15.158Z,7.14
2022-10-17T03:18:20.430Z,7.06
2022-10-17T03:21:26.331Z,7.40
2022-10-17T03:24:30.841Z,7.06
2022-10-17T03:27:35.620Z,7.32
2022-10-17T03:30:40.377Z,7.62
2022-10-17T03:33:45.983Z,7.79
2022-10-17T03:36:50.435Z,7.88
2022-10-17T03:39:55.767Z,7.64
2022-10-17T03:43:00.104Z,7.40
2022-10-17T03:46:06.192Z,7.42
2022-10-17T03:49:11.622Z,7.51
2022-10-17T03:52:17.537Z,7.48
2022-10-17T03:55:22.247Z,7.39
2022-10-17T03:58:27.242Z,7.60
2022-10-17T04:01:32.858Z,7.43
2022-10-17T04:04:37.687Z,7.37
2022-10-17T04:07:42.525Z,7.36
2022-10-17T04:10:47.962Z,7.37
2022-10-17T04:13:57.533Z,7.77
2022-10-17T04:17:03.527Z,8.14
2022-10-17T04:20:09.935Z,7.68
2022-10-17T04:23:14.576Z,8.18
2022-10-17T04:26:19.846Z,8.65
2022-10-17T04:29:25.388Z,9.12
2022-10-17T04:32:39.501Z,8.14
2022-10-17T04:36:03.090Z,7.93
2022-10-17T04:39:08.781Z,8.47
2022-10-17T04:42:13.681Z,8.88
2022-10-17T04:45:18.923Z,8.37
2022-10-17T04:48:25.039Z,8.97
2022-10-17T04:51:29.688Z,9.06
2022-10-17T04:54:56.195Z,9.35
2022-10-17T04:58:00.766Z,9.09
2022-10-17T05:01:09.532Z,8.95
2022-10-17T05:04:15.174Z,9.10
2022-10-17T05:07:19.967Z,9.00
2022-10-17T05:10:45.536Z,8.89
2022-10-17T05:13:56.118Z,8.00
2022-10-17T05:17:01.280Z,7.84
2022-10-17T05:20:07.301Z,7.15
2022-10-17T05:23:12.918Z,6.37
2022-10-17T05:26:21.838Z,5.49
2022-10-17T05:29:26.508Z,5.14
2022-10-17T05:32:40.245Z,4.77
2022-10-17T05:35:45.653Z,4.76
2022-10-17T05:38:54.260Z,5.10
2022-10-17T05:41:59.576Z,5.46
2022-10-17T05:45:05.915Z,5.72
2022-10-17T05:48:10.575Z,6.21
2022-10-17T05:51:15.145Z,6.31
2022-10-17T05:54:20.140Z,6.00
2022-10-17T05:57:28.659Z,6.13
2022-10-17T06:00:34.499Z,5.98
2022-10-17T06:03:39.199Z,5.75
2022-10-17T06:06:43.869Z,6.26
2022-10-17T06:09:48.172Z,5.85
2022-10-17T06:12:52.640Z,5.97
2022-10-17T06:15:58.084Z,6.37
2022-10-17T06:19:02.615Z,5.96
2022-10-17T06:22:06.917Z,5.61
2022-10-17T06:25:12.264Z,5.53
2022-10-17T06:28:16.932Z,5.21
2022-10-17T06:31:21.167Z,5.45
2022-10-17T06:34:26.588Z,5.57
2022-10-17T06:37:36.947Z,5.65
2022-10-17T06:40:45.372Z,5.52
2022-10-17T06:43:49.834Z,5.33
2022-10-17T06:47:14.332Z,5.53
2022-10-17T06:50:21.339Z,5.48
2022-10-17T06:53:36.947Z,5.47
2022-10-17T06:56:47.761Z,5.42
2022-10-17T07:00:10.898Z,5.43
2022-10-17T07:03:20.855Z,5.55
2022-10-17T07:06:26.800Z,5.64
2022-10-17T07:09:34.526Z,5.20
2022-10-17T07:12:39.227Z,5.04
2022-10-17T07:15:44.087Z,4.85
2022-10-17T07:18:51.489Z,5.02
2022-10-17T07:21:56.755Z,5.54
2022-10-17T07:25:01.735Z,5.67
2022-10-17T07:28:40.556Z,5.60
2022-10-17T07:31:58.014Z,5.53
2022-10-17T07:35:02.594Z,5.32
2022-10-17T07:38:07.622Z,5.36
2022-10-17T07:41:17.878Z,5.56
2022-10-17T07:44:25.903Z,5.77
2022-10-17T07:47:32.557Z,5.75
2022-10-17T07:50:37.524Z,5.68
2022-10-17T07:53:46.445Z,5.56
2022-10-17T07:56:55.642Z,5.49
2022-10-17T08:00:00.189Z,5.35
2022-10-17T08:03:05.962Z,4.94
2022-10-17T08:06:09.885Z,4.43
2022-10-17T08:09:14.439Z,4.37
2022-10-17T08:12:19.198Z,4.39
2022-10-17T08:15:26.806Z,4.18
2022-10-17T08:18:37.011Z,4.43
2022-10-17T08:21:45.670Z,4.32
2022-10-17T08:24:53.209Z,4.23
2022-10-17T08:27:57.759Z,4.26
2022-10-17T08:31:07.249Z,4.16
2022-10-17T08:34:11.619Z,3.91
2022-10-17T08:37:16.623Z,4.20
2022-10-17T08:40:27.940Z,4.30
2022-10-17T08:43:47.383Z,4.14
2022-10-17T08:46:55.271Z,3.98
2022-10-17T08:50:04.424Z,3.78
2022-10-17T08:53:39.252Z,4.00
2022-10-17T08:56:50.191Z,3.85
2022-10-17T08:59:56.047Z,3.36
2022-10-17T09:03:03.159Z,3.14
2022-10-17T09:06:19.079Z,3.00
2022-10-17T09:09:29.287Z,2.98
2022-10-17T09:12:39.374Z,3.17
2022-10-17T09:15:49.807Z,3.45
2022-10-17T09:19:09.891Z,3.38
2022-10-17T09:22:20.060Z,3.14
2022-10-17T09:25:25.201Z,2.74
2022-10-17T09:28:35.232Z,2.88
2022-10-17T09:31:48.544Z,3.06
2022-10-17T09:34:55.513Z,3.20
2022-10-17T09:38:00.345Z,3.21
2022-10-17T09:41:19.979Z,3.22
2022-10-17T09:44:36.646Z,2.89
2022-10-17T09:47:54.305Z,2.92
2022-10-17T09:51:14.781Z,2.75
2022-10-17T09:54:46.643Z,3.10
2022-10-17T09:58:00.007Z,3.12
2022-10-17T10:01:21.095Z,3.05
2022-10-17T10:04:30.420Z,3.04
2022-10-17T10:07:41.440Z,3.01
2022-10-17T10:10:46.472Z,3.28
2022-10-17T10:13:52.114Z,3.42
2022-10-17T10:16:57.932Z,3.23
2022-10-17T10:20:03.013Z,3.26
2022-10-17T10:23:14.715Z,3.16
2022-10-17T10:26:33.839Z,3.01
2022-10-17T10:29:50.867Z,3.26
2022-10-17T10:36:23.632Z,2.99
2022-10-17T10:39:46.126Z,3.02
2022-10-17T10:43:05.106Z,2.88
2022-10-17T10:46:28.279Z,2.74
2022-10-17T10:49:34.337Z,2.72
2022-10-17T10:52:48.611Z,2.66
2022-10-17T10:56:28.321Z,2.67
2022-10-17T11:00:03.501Z,2.44
2022-10-17T11:03:37.627Z,2.43
2022-10-17T11:06:46.700Z,2.49
2022-10-17T11:10:09.920Z,2.49
2022-10-17T11:13:24.597Z,2.55
2022-10-17T11:17:04.203Z,2.31
2022-10-17T11:20:33.682Z,2.25
2022-10-17T11:24:02.895Z,1.98
2022-10-17T11:27:11.869Z,2.07
2022-10-17T11:30:17.935Z,2.14
2022-10-17T11:33:41.217Z,2.17
2022-10-17T11:36:49.835Z,2.20
2022-10-17T11:40:02.410Z,2.33
2022-10-17T11:43:11.439Z,2.19
2022-10-17T11:46:25.446Z,2.54
2022-10-17T11:49:52.213Z,2.39
2022-10-17T11:53:06.378Z,2.08
2022-10-17T11:56:12.911Z,1.80
2022-10-17T12:00:05.087Z,1.67
2022-10-17T12:03:41.882Z,1.53
2022-10-17T12:07:10.098Z,1.56
2022-10-17T12:10:23.341Z,1.64
2022-10-17T12:13:31.166Z,1.64
2022-10-17T12:16:36.107Z,1.72
2022-10-17T12:19:41.219Z,1.61
2022-10-17T12:22:49.483Z,1.35
2022-10-17T12:26:04.721Z,1.54
2022-10-17T12:29:29.746Z,1.53
2022-10-17T12:32:53.365Z,1.55
2022-10-17T12:36:24.845Z,1.65
2022-10-17T12:39:29.724Z,1.66
2022-10-17T12:42:46.387Z,1.43
2022-10-17T12:46:01.684Z,1.24
2022-10-17T12:49:42.685Z,1.36
2022-10-17T12:52:58.708Z,1.42
2022-10-17T12:56:11.203Z,1.21
2022-10-17T12:59:29.522Z,1.00
2022-10-17T13:02:34.859Z,1.36
2022-10-17T13:05:46.551Z,1.37
2022-10-17T13:09:09.120Z,1.44
2022-10-17T13:12:23.242Z,1.36
2022-10-17T13:15:27.816Z,1.28
2022-10-17T13:18:32.330Z,1.05
2022-10-17T13:21:38.076Z,1.30
2022-10-17T13:24:42.658Z,1.16
2022-10-17T13:27:47.493Z,1.25
2022-10-17T13:30:53.690Z,1.27
2022-10-17T13:34:01.628Z,1.01
2022-10-17T13:37:11.479Z,1.23
2022-10-17T13:43:46.416Z,1.23
2022-10-17T13:46:51.881Z,0.94
2022-10-17T13:49:57.643Z,1.08
2022-10-17T13:53:27.975Z,0.94
2022-10-17T13:56:32.755Z,0.79
2022-10-17T13:59:42.258Z,0.81
2022-10-17T14:02:46.936Z,0.79
2022-10-17T14:06:14.105Z,0.85
2022-10-17T14:09:27.426Z,0.93
2022-10-17T14:12:31.691Z,0.91
2022-10-17T14:15:37.810Z,0.93
2022-10-17T14:18:48.258Z,0.89
2022-10-17T14:22:12.777Z,0.78
2022-10-17T14:25:39.053Z,0.83
2022-10-17T14:28:45.636Z,0.84
2022-10-17T14:31:51.455Z,0.82
2022-10-17T14:35:05.519Z,0.57
2022-10-17T14:38:17.676Z,0.66
2022-10-17T14:41:44.111Z,0.97
2022-10-17T14:44:54.840Z,1.08
2022-10-17T14:48:24.707Z,1.05
2022-10-17T14:51:40.077Z,0.97
2022-10-17T14:54:54.955Z,0.95
2022-10-17T14:57:59.940Z,0.79
2022-10-17T15:01:04.366Z,0.78
2022-10-17T15:04:11.602Z,1.15
2022-10-17T15:07:19.655Z,1.29
2022-10-17T15:10:34.858Z,1.31
2022-10-17T15:13:44.687Z,0.99
2022-10-17T15:16:50.001Z,1.04
2022-10-17T15:19:54.634Z,1.03
2022-10-17T15:23:01.852Z,1.24
2022-10-17T15:26:20.629Z,1.25
2022-10-17T15:29:24.987Z,1.26
2022-10-17T15:32:30.839Z,1.30
2022-10-17T15:35:35.138Z,1.52
2022-10-17T15:38:39.295Z,1.53
2022-10-17T15:41:46.142Z,1.54
2022-10-17T15:44:51.112Z,1.48
2022-10-17T15:48:05.371Z,1.70
2022-10-17T15:51:10.740Z,1.79
2022-10-17T15:54:14.948Z,1.84
2022-10-17T15:57:29.008Z,2.03
2022-10-17T16:00:33.710Z,2.18
2022-10-17T16:03:38.261Z,2.21
2022-10-17T16:06:46.002Z,2.25
2022-10-17T16:09:50.687Z,2.26
2022-10-17T16:12:55.671Z,2.19
2022-10-17T16:16:00.093Z,2.10
2022-10-17T16:19:05.097Z,2.16
2022-10-17T16:22:33.722Z,2.25
2022-10-17T16:25:38.214Z,2.35
2022-10-17T16:28:46.081Z,2.16
2022-10-17T16:31:50.747Z,2.16
2022-10-17T16:34:57.517Z,2.19
2022-10-17T16:38:01.806Z,2.28
2022-10-17T16:44:37.273Z,2.17
2022-10-17T16:47:41.835Z,2.23
2022-10-17T16:50:46.025Z,2.21
2022-10-17T16:53:54.924Z,2.24
2022-10-17T16:56:59.250Z,2.39
2022-10-17T17:00:04.340Z,2.35
2022-10-17T17:03:08.963Z,2.39
2022-10-17T17:06:22.690Z,2.30
2022-10-17T17:09:27.362Z,2.34
2022-10-17T17:12:38.210Z,2.51
2022-10-17T17:15:42.630Z,2.48
2022-10-17T17:18:47.626Z,2.35
2022-10-17T17:21:51.974Z,2.29
2022-10-17T17:24:56.306Z,2.28
2022-10-17T17:28:06.269Z,2.29
2022-10-17T17:31:23.099Z,2.30
2022-10-17T17:34:27.487Z,2.33
2022-10-17T17:37:32.203Z,2.36
2022-10-17T17:40:38.428Z,2.30
2022-10-17T17:43:44.557Z,2.35
2022-10-17T17:46:48.959Z,2.41
2022-10-17T17:49:55.068Z,2.35
2022-10-17T17:53:00.853Z,2.31
2022-10-17T17:56:07.342Z,2.28
2022-10-17T17:59:14.257Z,2.39
2022-10-17T18:02:18.711Z,2.37
2022-10-17T18:05:23.049Z,2.20
2022-10-17T18:08:28.054Z,2.30
2022-10-17T18:11:32.435Z,2.36
2022-10-17T18:14:42.522Z,2.32
2022-10-17T18:17:46.782Z,2.39
2022-10-17T18:20:51.338Z,2.51
2022-10-17T18:24:00.105Z,2.24
2022-10-17T18:27:04.475Z,2.34
2022-10-17T18:30:09.696Z,2.41
2022-10-17T18:33:15.387Z,2.45
2022-10-17T18:36:20.787Z,2.47
2022-10-17T18:39:27.619Z,2.52
2022-10-17T18:42:32.003Z,2.52
2022-10-17T18:45:37.629Z,2.44
2022-10-17T18:48:47.580Z,2.41
2022-10-17T18:51:52.623Z,2.46
2022-10-17T18:54:56.955Z,2.31
2022-10-17T18:58:02.780Z,2.30
2022-10-17T19:01:11.264Z,2.29
2022-10-17T19:04:18.080Z,2.29
2022-10-17T19:07:22.655Z,2.24
2022-10-17T19:10:29.783Z,2.40
2022-10-17T19:13:35.942Z,2.12
2022-10-17T19:16:42.972Z,2.56
2022-10-17T19:19:52.452Z,2.25
2022-10-17T19:22:56.750Z,2.32
2022-10-17T19:26:12.034Z,2.17
2022-10-17T19:29:19.296Z,1.99
2022-10-17T19:32:23.610Z,2.03
2022-10-17T19:35:28.023Z,2.03
2022-10-17T19:38:33.372Z,2.08
2022-10-17T19:41:37.585Z,2.05
2022-10-17T19:44:41.906Z,1.80
2022-10-17T19:47:46.649Z,1.92
2022-10-17T19:50:51.742Z,2.24
2022-10-17T19:53:58.327Z,2.19
2022-10-17T19:57:04.638Z,2.19
2022-10-17T20:00:11.967Z,1.93
2022-10-17T20:03:16.090Z,2.08
2022-10-17T20:06:21.022Z,2.13
2022-10-17T20:09:25.936Z,2.03
2022-10-17T20:12:33.132Z,2.25
2022-10-17T20:15:38.621Z,2.17
2022-10-17T20:18:44.057Z,2.01
2022-10-17T20:21:50.629Z,2.05
2022-10-17T20:24:54.922Z,2.05
2022-10-17T20:27:59.879Z,2.23
2022-10-17T20:31:04.267Z,2.20
2022-10-17T20:34:08.643Z,2.21
2022-10-17T20:37:13.183Z,2.17
2022-10-17T20:40:34.146Z,2.30
2022-10-17T20:43:42.903Z,2.06
2022-10-17T20:47:00.586Z,1.93
2022-10-17T20:50:06.400Z,1.95
2022-10-17T20:53:35.361Z,1.79
2022-10-17T20:56:37.058Z,1.74
2022-10-17T20:59:41.266Z,1.95
2022-10-17T21:02:45.869Z,1.86
2022-10-17T21:05:50.588Z,1.36
2022-10-17T21:08:56.691Z,1.67
2022-10-17T21:12:05.985Z,1.95
2022-10-17T21:15:11.806Z,1.85
2022-10-17T21:18:15.958Z,1.79
2022-10-17T21:21:27.594Z,1.79
2022-10-17T21:24:32.906Z,1.59
2022-10-17T21:27:37.417Z,1.59
2022-10-17T21:30:41.790Z,1.30
2022-10-17T21:33:50.014Z,1.25
2022-10-17T21:36:54.873Z,1.24
2022-10-17T21:39:59.328Z,1.07
2022-10-17T21:43:03.643Z,1.11
2022-10-17T21:46:21.685Z,1.06
2022-10-17T21:49:26.981Z,1.26
2022-10-17T21:52:31.796Z,0.99
2022-10-17T21:55:39.395Z,0.95
2022-10-17T21:58:44.261Z,0.94
2022-10-17T22:01:48.900Z,0.88
2022-10-17T22:04:53.536Z,1.08
2022-10-17T22:07:57.955Z,1.29
2022-10-17T22:11:08.509Z,1.22
2022-10-17T22:14:16.442Z,1.42
2022-10-17T22:17:21.119Z,1.57
2022-10-17T22:20:25.417Z,1.57
2022-10-17T22:23:33.466Z,1.54
2022-10-17T22:26:43.630Z,1.49
2022-10-17T22:29:50.609Z,1.49
2022-10-17T22:32:57.358Z,1.55
2022-10-17T22:36:01.848Z,1.78
2022-10-17T22:39:06.757Z,1.59
2022-10-17T22:42:11.238Z,1.87
2022-10-17T22:45:15.842Z,1.86
2022-10-17T22:48:21.718Z,1.81
2022-10-17T22:51:26.283Z,1.98
2022-10-17T22:54:30.624Z,2.29
2022-10-17T22:57:35.313Z,2.43
2022-10-17T23:00:40.388Z,2.41
2022-10-17T23:03:45.339Z,3.35
2022-10-17T23:06:49.547Z,4.57
2022-10-17T23:09:54.201Z,3.55
2022-10-17T23:12:59.956Z,3.89
2022-10-17T23:16:04.652Z,4.24
2022-10-17T23:19:09.057Z,4.03
2022-10-17T23:22:13.384Z,4.08
2022-10-17T23:25:20.040Z,4.07
2022-10-17T23:28:24.498Z,4.38
2022-10-17T23:31:28.863Z,4.16
2022-10-17T23:34:33.345Z,3.79
2022-10-17T23:37:38.724Z,4.06
2022-10-17T23:40:43.203Z,4.09
2022-10-17T23:43:47.775Z,4.16
2022-10-17T23:46:52.041Z,4.78
2022-10-17T23:49:56.472Z,5.00
2022-10-17T23:53:00.946Z,5.62
2022-10-17T23:56:06.701Z,5.91
2022-10-17T23:59:11.391Z,6.71
